Time;durP1;ratioP1;P1;durP2;ratioP2;P2;SDS_P1;SDS_P2;PMS_P1;PMS_P2;Temp;Humidity;BMP_temperature;BMP_pressure;BME280_temperature;BME280_humidity;BME280_pressure;Samples;Min_cycle;Max_cycle;Signal;HPM_P1;HPM_P2
2022/11/26 00:02:17;;;;;;;6.53;3.10;;;9.40;99.90;;;;;;933259;147;27329;-78
2022/11/26 00:04:44;;;;;;;5.90;3.10;;;9.50;99.90;;;;;;917628;150;27383;-78
2022/11/26 00:07:10;;;;;;;2.80;2.50;;;9.50;99.90;;;;;;932153;147;27862;-78
2022/11/26 00:09:37;;;;;;;4.53;2.97;;;9.50;99.90;;;;;;940292;151;27337;-78
2022/11/26 00:12:19;;;;;;;6.53;3.27;;;9.50;99.90;;;;;;931060;150;27403;-78
2022/11/26 00:14:46;;;;;;;4.90;3.40;;;9.40;99.90;;;;;;932520;150;27420;-78
2022/11/26 00:17:12;;;;;;;3.40;2.60;;;9.40;99.90;;;;;;929126;150;27317;-78
2022/11/26 00:19:38;;;;;;;5.40;3.13;;;9.30;99.90;;;;;;933387;149;27766;-78
2022/11/26 00:22:05;;;;;;;4.53;3.20;;;9.30;99.90;;;;;;931305;149;27360;-78
2022/11/26 00:24:32;;;;;;;4.30;2.73;;;9.20;99.90;;;;;;931509;150;27404;-78
2022/11/26 00:26:58;;;;;;;5.03;3.00;;;9.20;99.90;;;;;;938781;146;27749;-78
2022/11/26 00:29:25;;;;;;;5.60;3.10;;;9.10;99.90;;;;;;938218;147;27961;-78
2022/11/26 00:31:51;;;;;;;5.70;3.43;;;9.10;99.90;;;;;;939492;146;27438;-78
2022/11/26 00:34:18;;;;;;;6.23;3.50;;;9.00;99.90;;;;;;933057;149;27497;-78
2022/11/26 00:36:45;;;;;;;4.93;2.90;;;9.00;99.90;;;;;;917901;150;27382;-78
2022/11/26 00:39:11;;;;;;;4.73;2.70;;;8.90;99.90;;;;;;930838;147;27337;-78
2022/11/26 00:41:38;;;;;;;7.07;3.00;;;8.90;99.90;;;;;;917965;150;27425;-78
2022/11/26 00:44:04;;;;;;;4.80;2.90;;;8.80;99.90;;;;;;932819;147;27333;-78
2022/11/26 00:46:31;;;;;;;5.77;3.07;;;8.80;99.90;;;;;;917794;150;27448;-78
2022/11/26 00:48:57;;;;;;;6.30;3.07;;;8.70;99.90;;;;;;917866;152;27327;-78
2022/11/26 00:51:27;;;;;;;6.27;2.77;;;8.70;99.90;;;;;;931353;150;27343;-78
2022/11/26 00:53:54;;;;;;;5.10;3.20;;;8.60;99.90;;;;;;918203;150;27445;-78
2022/11/26 00:56:20;;;;;;;7.33;3.60;;;8.60;99.90;;;;;;926416;150;27343;-78
2022/11/26 00:58:47;;;;;;;5.00;3.00;;;8.50;99.90;;;;;;918101;150;27439;-78
2022/11/26 01:01:13;;;;;;;7.73;3.17;;;8.50;99.90;;;;;;919855;150;28087;-78
2022/11/26 01:03:41;;;;;;;6.50;2.87;;;8.40;99.90;;;;;;938139;147;27410;-78
2022/11/26 01:06:06;;;;;;;5.93;2.80;;;8.40;99.90;;;;;;937402;149;27329;-78
2022/11/26 01:08:33;;;;;;;5.50;2.57;;;8.30;99.90;;;;;;936755;149;27387;-78
2022/11/26 01:11:00;;;;;;;7.90;2.97;;;8.30;99.90;;;;;;936194;149;27407;-78
2022/11/26 01:13:26;;;;;;;4.87;2.73;;;8.30;99.90;;;;;;937134;150;27480;-78
2022/11/26 01:15:55;;;;;;;11.33;4.43;;;8.20;99.90;;;;;;937429;149;27333;-78
2022/11/26 01:18:22;;;;;;;5.23;4.00;;;8.20;99.90;;;;;;936086;149;27319;-78
2022/11/26 01:20:48;;;;;;;6.50;3.37;;;8.10;99.90;;;;;;934728;149;27328;-78
2022/11/26 01:23:15;;;;;;;6.13;2.90;;;8.10;99.90;;;;;;926645;149;27756;-78
2022/11/26 01:25:42;;;;;;;5.70;2.90;;;8.10;99.90;;;;;;935237;149;27366;-78
2022/11/26 01:28:11;;;;;;;7.47;2.90;;;8.00;99.90;;;;;;936951;149;27347;-78
2022/11/26 01:30:38;;;;;;;4.57;2.57;;;8.00;99.90;;;;;;935895;149;27753;-78
2022/11/26 01:33:04;;;;;;;4.73;2.50;;;7.90;99.90;;;;;;936372;150;27300;-78
2022/11/26 01:35:32;;;;;;;5.57;3.40;;;7.90;99.90;;;;;;927680;149;27435;-78
2022/11/26 01:37:58;;;;;;;5.07;2.83;;;7.80;99.90;;;;;;934372;149;27473;-78
2022/11/26 01:40:25;;;;;;;9.37;3.33;;;7.80;99.90;;;;;;935290;149;27410;-78
2022/11/26 01:43:00;;;;;;;4.27;2.83;;;7.70;99.90;;;;;;936110;149;27326;-78
2022/11/26 01:45:27;;;;;;;7.80;3.90;;;7.70;99.90;;;;;;928610;149;27412;-78
2022/11/26 01:47:53;;;;;;;7.53;2.87;;;7.60;99.90;;;;;;936946;149;27360;-78
2022/11/26 01:50:35;;;;;;;5.27;2.70;;;7.50;99.90;;;;;;937881;149;27383;-78
2022/11/26 01:53:13;;;;;;;5.53;3.53;;;7.50;99.90;;;;;;934649;149;27370;-78
2022/11/26 01:55:48;;;;;;;4.87;2.90;;;7.50;99.90;;;;;;936033;149;27416;-78
2022/11/26 01:58:15;;;;;;;3.87;2.50;;;7.50;99.90;;;;;;935390;149;27779;-78
2022/11/26 02:00:42;;;;;;;4.23;2.90;;;7.40;99.90;;;;;;935234;149;27356;-78
2022/11/26 02:03:08;;;;;;;6.93;3.37;;;7.40;99.90;;;;;;933602;149;27423;-77
2022/11/26 02:05:35;;;;;;;5.07;2.90;;;7.40;99.90;;;;;;922165;151;27347;-78
2022/11/26 02:08:01;;;;;;;5.53;3.17;;;7.40;99.90;;;;;;920153;151;27496;-78
2022/11/26 02:10:28;;;;;;;5.07;3.00;;;7.50;99.90;;;;;;920640;151;28103;-78
2022/11/26 02:12:55;;;;;;;5.67;3.00;;;7.50;99.90;;;;;;922456;151;27359;-78
2022/11/26 02:15:21;;;;;;;6.80;3.30;;;7.50;99.90;;;;;;919176;151;28016;-78
2022/11/26 02:17:48;;;;;;;5.17;2.80;;;7.50;99.90;;;;;;920388;151;27450;-78
2022/11/26 02:20:20;;;;;;;5.80;3.53;;;7.50;99.90;;;;;;918758;151;27421;-78
2022/11/26 02:22:49;;;;;;;8.50;3.10;;;7.50;99.90;;;;;;919556;151;27453;-79
2022/11/26 02:25:37;;;;;;;4.27;2.87;;;7.40;99.90;;;;;;921829;151;27480;-78
2022/11/26 02:28:41;;;;;;;3.40;2.63;;;7.40;99.90;;;;;;919926;151;27333;-78
2022/11/26 02:31:16;;;;;;;6.17;2.93;;;7.40;99.90;;;;;;920749;151;27416;-78
2022/11/26 02:33:49;;;;;;;8.33;3.57;;;7.30;99.90;;;;;;910250;152;27307;-78
2022/11/26 02:36:24;;;;;;;7.93;2.87;;;7.30;99.90;;;;;;919597;151;27374;-78
2022/11/26 02:38:51;;;;;;;4.20;2.90;;;7.20;99.90;;;;;;920175;151;27430;-78
2022/11/26 02:41:17;;;;;;;6.13;3.10;;;7.20;99.90;;;;;;922145;151;27436;-78
2022/11/26 02:43:44;;;;;;;6.37;3.53;;;7.10;99.90;;;;;;920208;151;27493;-78
2022/11/26 02:46:11;;;;;;;8.23;3.30;;;7.10;99.90;;;;;;918964;151;28401;-78
2022/11/26 02:48:37;;;;;;;6.57;3.00;;;7.10;99.90;;;;;;917994;151;27437;-78
2022/11/26 02:51:10;;;;;;;6.77;2.50;;;7.00;99.90;;;;;;917130;151;27473;-78
2022/11/26 02:53:36;;;;;;;6.17;3.03;;;7.00;99.90;;;;;;918967;151;27445;-78
2022/11/26 02:56:03;;;;;;;5.37;3.40;;;7.00;99.90;;;;;;918596;151;27428;-78
2022/11/26 02:58:29;;;;;;;5.87;3.07;;;7.00;99.90;;;;;;919590;151;27416;-78
2022/11/26 03:00:56;;;;;;;9.30;5.27;;;6.90;99.90;;;;;;922728;149;27437;-78
2022/11/26 03:03:25;;;;;;;4.23;3.40;;;6.90;99.90;;;;;;924540;149;27272;-78
2022/11/26 03:06:00;;;;;;;7.40;3.10;;;6.90;99.90;;;;;;949967;145;27368;-78
2022/11/26 03:08:27;;;;;;;6.47;3.13;;;6.90;99.90;;;;;;938076;148;27421;-78
2022/11/26 03:10:54;;;;;;;3.40;2.80;;;6.90;99.90;;;;;;955592;146;27319;-78
2022/11/26 03:13:20;;;;;;;5.33;3.00;;;6.90;99.90;;;;;;940684;148;27335;-78
2022/11/26 03:15:47;;;;;;;4.80;2.60;;;6.90;99.90;;;;;;949726;148;27337;-78
2022/11/26 03:18:13;;;;;;;8.73;4.43;;;6.90;99.90;;;;;;957779;146;27360;-78
2022/11/26 03:20:40;;;;;;;6.53;3.40;;;6.90;99.90;;;;;;937830;148;27365;-78
2022/11/26 03:23:07;;;;;;;5.13;2.90;;;6.90;99.90;;;;;;951255;149;27352;-78
2022/11/26 03:25:33;;;;;;;6.00;2.53;;;6.90;99.90;;;;;;950207;149;27398;-78
2022/11/26 03:28:00;;;;;;;7.00;2.80;;;6.90;99.90;;;;;;956390;145;27316;-78
2022/11/26 03:30:26;;;;;;;6.23;3.37;;;6.80;99.90;;;;;;948633;148;27402;-79
2022/11/26 03:32:53;;;;;;;5.27;2.57;;;6.80;99.90;;;;;;951158;148;28092;-78
2022/11/26 03:35:19;;;;;;;6.47;3.07;;;6.80;99.90;;;;;;949963;149;27684;-78
2022/11/26 03:37:46;;;;;;;8.77;3.13;;;6.70;99.90;;;;;;951403;149;27290;-78
2022/11/26 03:40:15;;;;;;;4.70;3.07;;;6.70;99.90;;;;;;957931;148;27303;-78
2022/11/26 03:42:39;;;;;;;5.83;2.97;;;6.60;99.90;;;;;;958346;148;27303;-78
2022/11/26 03:45:06;;;;;;;5.00;3.00;;;6.60;99.90;;;;;;951054;149;28005;-78
2022/11/26 03:47:32;;;;;;;5.17;2.93;;;6.50;99.90;;;;;;951681;149;27428;-79
2022/11/26 03:49:59;;;;;;;4.57;3.03;;;6.50;99.90;;;;;;950932;149;27324;-79
2022/11/26 03:52:26;;;;;;;4.43;2.90;;;6.40;99.90;;;;;;950585;149;27269;-79
2022/11/26 03:54:52;;;;;;;5.57;2.73;;;6.40;99.90;;;;;;952057;149;27381;-79
2022/11/26 03:57:19;;;;;;;7.67;3.07;;;6.40;99.90;;;;;;950854;149;27328;-79
2022/11/26 03:59:45;;;;;;;4.50;2.87;;;6.30;99.90;;;;;;951035;149;27352;-78
2022/11/26 04:02:12;;;;;;;4.40;3.17;;;6.30;99.90;;;;;;950559;149;27445;-78
2022/11/26 04:04:38;;;;;;;7.47;3.10;;;6.30;99.90;;;;;;949124;149;27365;-78
2022/11/26 04:07:05;;;;;;;5.33;2.90;;;6.20;99.90;;;;;;955280;148;27414;-78
2022/11/26 04:09:32;;;;;;;6.23;2.90;;;6.20;99.90;;;;;;958955;148;27368;-79
2022/11/26 04:11:59;;;;;;;5.70;2.80;;;6.10;99.90;;;;;;951073;149;27343;-78
2022/11/26 04:14:25;;;;;;;4.17;3.07;;;6.10;99.90;;;;;;942068;148;27409;-78
2022/11/26 04:16:51;;;;;;;5.20;3.47;;;6.10;99.90;;;;;;937148;148;27438;-78
2022/11/26 04:19:18;;;;;;;6.57;3.60;;;6.10;99.90;;;;;;953299;148;27328;-78
2022/11/26 04:21:45;;;;;;;5.63;2.90;;;6.00;99.90;;;;;;953484;148;27336;-78
2022/11/26 04:24:11;;;;;;;4.27;2.83;;;6.00;99.90;;;;;;941591;147;27798;-77
2022/11/26 04:26:38;;;;;;;5.67;3.33;;;6.00;99.90;;;;;;939896;148;27374;-78
2022/11/26 04:29:04;;;;;;;7.00;3.50;;;6.00;99.90;;;;;;954769;145;27349;-77
2022/11/26 04:31:31;;;;;;;7.60;3.80;;;6.00;99.90;;;;;;941333;148;27354;-78
2022/11/26 04:33:57;;;;;;;8.77;3.27;;;6.00;99.90;;;;;;949818;149;27442;-78
2022/11/26 04:36:24;;;;;;;4.77;2.90;;;6.00;99.90;;;;;;953543;149;27360;-79
2022/11/26 04:38:51;;;;;;;4.33;2.60;;;6.00;99.90;;;;;;951860;149;27398;-78
2022/11/26 04:41:17;;;;;;;8.23;3.30;;;6.00;99.90;;;;;;949508;149;28494;-78
2022/11/26 04:43:44;;;;;;;3.57;2.77;;;6.00;99.90;;;;;;949954;149;27351;-78
2022/11/26 04:46:10;;;;;;;3.70;2.87;;;6.00;99.90;;;;;;951501;148;27344;-78
2022/11/26 04:48:37;;;;;;;6.20;2.97;;;5.90;99.90;;;;;;951662;149;27339;-79
2022/11/26 04:51:04;;;;;;;7.53;2.90;;;5.90;99.90;;;;;;951456;149;27892;-78
2022/11/26 04:53:30;;;;;;;5.63;3.27;;;5.90;99.90;;;;;;952379;149;27419;-78
2022/11/26 04:55:57;;;;;;;7.73;3.07;;;5.90;99.90;;;;;;951004;149;27375;-78
2022/11/26 04:58:23;;;;;;;5.50;2.97;;;5.90;99.90;;;;;;952682;149;27446;-78
2022/11/26 05:00:50;;;;;;;3.60;2.53;;;5.90;99.90;;;;;;950682;149;27271;-78
2022/11/26 05:03:16;;;;;;;6.63;3.30;;;6.00;99.90;;;;;;949761;149;27351;-78
2022/11/26 05:05:43;;;;;;;5.93;3.63;;;6.00;99.90;;;;;;951331;148;27368;-78
2022/11/26 05:08:10;;;;;;;5.80;3.70;;;6.00;99.90;;;;;;951191;149;27289;-78
2022/11/26 05:10:36;;;;;;;5.83;3.60;;;6.00;99.90;;;;;;949914;148;27281;-78
2022/11/26 05:13:03;;;;;;;4.47;3.20;;;6.00;99.90;;;;;;950667;148;27718;-79
2022/11/26 05:15:29;;;;;;;5.20;3.00;;;6.00;99.90;;;;;;953185;148;27949;-78
2022/11/26 05:17:56;;;;;;;4.77;3.20;;;6.10;99.90;;;;;;951025;149;27368;-78
2022/11/26 05:20:23;;;;;;;5.70;3.07;;;6.10;99.90;;;;;;951799;149;27393;-78
2022/11/26 05:22:49;;;;;;;4.80;3.10;;;6.10;99.90;;;;;;951353;148;27403;-78
2022/11/26 05:25:16;;;;;;;7.67;2.70;;;6.10;99.90;;;;;;952793;149;27248;-78
2022/11/26 05:27:42;;;;;;;5.67;2.90;;;6.10;99.90;;;;;;952832;149;27414;-78
2022/11/26 05:30:09;;;;;;;5.33;2.83;;;6.20;99.90;;;;;;951087;148;27373;-78
2022/11/26 05:32:36;;;;;;;3.80;3.07;;;6.20;99.90;;;;;;951698;149;28334;-78
2022/11/26 05:35:02;;;;;;;5.40;3.00;;;6.20;99.90;;;;;;950081;148;27370;-78
2022/11/26 05:37:29;;;;;;;3.93;3.03;;;6.20;99.90;;;;;;951701;149;27338;-78
2022/11/26 05:39:55;;;;;;;3.30;2.73;;;6.30;99.90;;;;;;950610;149;27352;-79
2022/11/26 05:42:22;;;;;;;4.43;2.83;;;6.30;99.90;;;;;;950506;149;27899;-78
2022/11/26 05:44:48;;;;;;;7.03;3.63;;;6.30;99.90;;;;;;951765;149;27350;-78
2022/11/26 05:47:15;;;;;;;4.20;2.63;;;6.30;99.90;;;;;;952057;149;27273;-78
2022/11/26 05:49:42;;;;;;;5.80;3.07;;;6.40;99.90;;;;;;951395;149;27414;-78
2022/11/26 05:52:08;;;;;;;4.37;3.10;;;6.40;99.90;;;;;;952694;149;27296;-78
2022/11/26 05:54:35;;;;;;;3.63;2.80;;;6.40;99.90;;;;;;952131;148;27363;-77
2022/11/26 05:57:01;;;;;;;3.30;3.00;;;6.50;99.90;;;;;;951648;148;27377;-78
2022/11/26 05:59:28;;;;;;;3.80;2.80;;;6.50;99.90;;;;;;950264;148;27309;-78
2022/11/26 06:01:55;;;;;;;4.80;3.00;;;6.50;99.90;;;;;;951820;149;27341;-78
2022/11/26 06:04:21;;;;;;;3.07;2.77;;;6.60;99.90;;;;;;951980;148;27329;-79
2022/11/26 06:06:48;;;;;;;4.87;3.27;;;6.60;99.90;;;;;;949665;149;27949;-78
2022/11/26 06:09:14;;;;;;;4.80;3.00;;;6.60;99.90;;;;;;947914;149;27409;-78
2022/11/26 06:11:41;;;;;;;3.50;2.50;;;6.70;99.90;;;;;;948398;149;27311;-78
2022/11/26 06:14:09;;;;;;;6.37;3.20;;;6.70;99.90;;;;;;949092;149;27321;-78
2022/11/26 06:16:34;;;;;;;2.80;2.40;;;6.70;99.90;;;;;;948085;149;27290;-78
2022/11/26 06:19:01;;;;;;;3.47;2.57;;;6.80;99.90;;;;;;948566;149;27371;-78
2022/11/26 06:21:27;;;;;;;3.83;2.90;;;6.80;99.90;;;;;;946350;149;27344;-78
2022/11/26 06:23:54;;;;;;;5.20;2.63;;;6.80;99.90;;;;;;949357;149;27462;-77
2022/11/26 06:26:20;;;;;;;5.20;2.90;;;6.80;99.90;;;;;;945358;149;27415;-78
2022/11/26 06:28:47;;;;;;;3.83;3.00;;;6.80;99.90;;;;;;946950;149;27305;-78
2022/11/26 06:31:14;;;;;;;4.33;3.20;;;6.80;99.90;;;;;;946582;149;27282;-79
2022/11/26 06:33:40;;;;;;;3.87;2.77;;;6.80;99.90;;;;;;947103;149;27373;-79
2022/11/26 06:36:07;;;;;;;6.00;3.03;;;6.80;99.90;;;;;;946788;149;27448;-78
2022/11/26 06:38:33;;;;;;;6.40;4.17;;;6.80;99.90;;;;;;947765;149;27314;-77
2022/11/26 06:41:00;;;;;;;4.93;3.67;;;6.80;99.90;;;;;;947656;149;28010;-78
2022/11/26 06:43:26;;;;;;;5.73;3.87;;;6.80;99.90;;;;;;948391;149;27455;-79
2022/11/26 06:45:53;;;;;;;7.40;3.77;;;6.80;99.90;;;;;;949886;149;27364;-78
2022/11/26 06:48:23;;;;;;;4.63;3.40;;;6.80;99.90;;;;;;947538;149;27361;-77
2022/11/26 06:50:49;;;;;;;5.80;3.53;;;6.90;99.90;;;;;;947630;149;27284;-78
2022/11/26 06:53:16;;;;;;;6.83;4.93;;;6.90;99.90;;;;;;947856;149;27310;-78
2022/11/26 06:55:42;;;;;;;5.03;4.43;;;6.90;99.90;;;;;;946536;148;27313;-79
2022/11/26 06:58:09;;;;;;;8.90;4.53;;;6.80;99.90;;;;;;946343;149;27388;-79
2022/11/26 07:00:35;;;;;;;7.33;3.60;;;6.80;99.90;;;;;;947694;149;27332;-78
2022/11/26 07:03:02;;;;;;;5.77;3.57;;;6.80;99.90;;;;;;947779;149;28744;-78
2022/11/26 07:05:29;;;;;;;6.57;3.50;;;6.80;99.90;;;;;;947139;149;27391;-78
2022/11/26 07:07:55;;;;;;;6.87;3.60;;;6.70;99.90;;;;;;951203;148;27352;-78
2022/11/26 07:10:22;;;;;;;7.60;3.40;;;6.70;99.90;;;;;;951152;149;27345;-79
2022/11/26 07:12:48;;;;;;;5.80;3.83;;;6.70;99.90;;;;;;951617;148;27413;-78
2022/11/26 07:15:15;;;;;;;9.33;4.27;;;6.70;99.90;;;;;;951446;149;27859;-78
2022/11/26 07:17:42;;;;;;;6.77;3.80;;;6.70;99.90;;;;;;951816;149;27794;-78
2022/11/26 07:20:08;;;;;;;8.87;3.93;;;6.80;99.90;;;;;;951437;149;27391;-78
2022/11/26 07:22:35;;;;;;;5.33;3.80;;;6.80;99.90;;;;;;951626;149;27317;-79
2022/11/26 07:25:01;;;;;;;6.60;5.33;;;6.80;99.90;;;;;;951605;149;27364;-79
2022/11/26 07:27:28;;;;;;;9.27;5.47;;;6.90;99.90;;;;;;952624;149;27477;-78
2022/11/26 07:29:54;;;;;;;9.03;5.13;;;6.90;99.90;;;;;;951465;149;27322;-78
2022/11/26 07:32:21;;;;;;;8.13;5.30;;;7.00;99.90;;;;;;952073;148;27321;-78
2022/11/26 07:34:48;;;;;;;9.10;5.93;;;7.10;99.90;;;;;;951675;149;27398;-78
2022/11/26 07:37:15;;;;;;;8.27;5.60;;;7.10;99.90;;;;;;952000;148;27329;-79
2022/11/26 07:39:41;;;;;;;5.53;5.03;;;7.20;99.90;;;;;;953031;149;27454;-78
2022/11/26 07:42:07;;;;;;;7.90;5.13;;;7.30;99.90;;;;;;950758;149;28695;-79
2022/11/26 07:44:34;;;;;;;9.80;5.00;;;7.40;99.90;;;;;;952405;149;27795;-79
2022/11/26 07:47:03;;;;;;;8.23;4.40;;;7.40;99.90;;;;;;952405;148;27503;-78
2022/11/26 07:49:27;;;;;;;7.33;4.40;;;7.50;99.90;;;;;;951308;149;27267;-78
2022/11/26 07:51:54;;;;;;;5.70;3.70;;;7.50;99.90;;;;;;952558;148;27425;-77
2022/11/26 07:54:20;;;;;;;7.17;3.80;;;7.60;99.90;;;;;;952484;148;27767;-78
2022/11/26 07:56:47;;;;;;;7.17;3.70;;;7.60;99.90;;;;;;951656;149;27299;-77
2022/11/26 07:59:14;;;;;;;9.00;3.93;;;7.70;99.90;;;;;;951933;148;27403;-77
2022/11/26 08:01:40;;;;;;;6.63;3.87;;;7.80;99.90;;;;;;951994;148;27305;-78
2022/11/26 08:04:07;;;;;;;6.70;3.63;;;7.80;99.90;;;;;;950572;148;27489;-78
2022/11/26 08:06:33;;;;;;;4.63;3.40;;;7.90;99.90;;;;;;951688;148;27369;-77
2022/11/26 08:09:01;;;;;;;6.53;3.73;;;8.00;99.90;;;;;;943638;149;27251;-78
2022/11/26 08:11:26;;;;;;;4.70;3.70;;;8.10;99.90;;;;;;940148;148;27449;-78
2022/11/26 08:13:56;;;;;;;6.30;3.60;;;8.30;99.90;;;;;;941578;148;27323;-79
2022/11/26 08:16:22;;;;;;;7.13;3.53;;;8.40;99.90;;;;;;943149;150;27335;-79
2022/11/26 08:18:49;;;;;;;4.63;3.40;;;8.50;99.90;;;;;;943284;150;27341;-78
2022/11/26 08:21:15;;;;;;;6.77;3.60;;;8.60;99.90;;;;;;943877;148;27301;-79
2022/11/26 08:23:42;;;;;;;7.70;3.80;;;8.70;99.90;;;;;;943583;150;27303;-78
2022/11/26 08:26:09;;;;;;;6.10;3.90;;;8.80;99.90;;;;;;941701;149;27302;-79
2022/11/26 08:28:35;;;;;;;7.50;4.23;;;9.00;99.90;;;;;;940196;150;27435;-79
2022/11/26 08:31:05;;;;;;;6.37;3.97;;;9.20;99.90;;;;;;940856;149;27494;-78
2022/11/26 08:33:31;;;;;;;6.60;4.03;;;9.50;99.90;;;;;;941663;149;27475;-78
2022/11/26 08:35:58;;;;;;;10.33;3.90;;;9.70;99.90;;;;;;942234;148;27301;-78
2022/11/26 08:38:24;;;;;;;6.53;4.70;;;10.00;99.90;;;;;;940033;150;27377;-79
2022/11/26 08:40:53;;;;;;;7.13;4.20;;;10.20;99.90;;;;;;941321;148;27357;-79
2022/11/26 08:43:17;;;;;;;10.13;4.70;;;10.30;99.90;;;;;;941486;150;27347;-78
2022/11/26 08:45:44;;;;;;;6.33;4.47;;;10.40;99.90;;;;;;941757;150;27347;-78
2022/11/26 08:48:12;;;;;;;6.60;3.83;;;10.40;99.90;;;;;;940988;149;27301;-78
2022/11/26 08:50:37;;;;;;;4.27;3.87;;;10.40;99.90;;;;;;941447;150;27283;-79
2022/11/26 08:53:04;;;;;;;5.30;4.13;;;10.40;99.90;;;;;;941606;150;27358;-79
2022/11/26 08:55:30;;;;;;;8.23;4.43;;;10.40;99.90;;;;;;940578;150;27346;-78
2022/11/26 08:57:57;;;;;;;7.87;4.00;;;10.40;99.90;;;;;;939739;149;27355;-78
2022/11/26 09:00:24;;;;;;;5.17;3.60;;;10.30;99.90;;;;;;940791;150;27451;-79
2022/11/26 09:02:50;;;;;;;10.03;4.67;;;10.30;99.90;;;;;;940644;150;27352;-79
2022/11/26 09:05:17;;;;;;;8.00;4.13;;;10.30;99.90;;;;;;941381;148;27345;-79
2022/11/26 09:07:43;;;;;;;7.93;4.57;;;10.30;99.90;;;;;;941458;150;27535;-78
2022/11/26 09:10:10;;;;;;;7.77;4.07;;;10.20;99.90;;;;;;948850;148;27316;-79
2022/11/26 09:12:37;;;;;;;10.13;4.33;;;10.20;99.90;;;;;;955704;147;27377;-78
2022/11/26 09:15:03;;;;;;;10.70;5.50;;;10.20;99.90;;;;;;956613;148;27458;-79
2022/11/26 09:17:30;;;;;;;8.57;4.53;;;10.10;99.90;;;;;;955067;148;27372;-79
2022/11/26 09:19:56;;;;;;;7.87;4.77;;;10.10;99.90;;;;;;955941;148;27449;-78
2022/11/26 09:22:23;;;;;;;6.87;4.60;;;10.10;99.90;;;;;;955883;148;27304;-78
2022/11/26 09:24:49;;;;;;;9.10;4.70;;;10.00;99.90;;;;;;957296;148;27364;-78
2022/11/26 09:27:16;;;;;;;9.77;4.73;;;10.00;99.90;;;;;;955071;148;27733;-78
2022/11/26 09:29:43;;;;;;;6.13;4.90;;;10.00;99.90;;;;;;954490;148;27870;-79
2022/11/26 09:32:09;;;;;;;7.30;4.53;;;10.00;99.90;;;;;;955977;148;27336;-78
2022/11/26 09:34:36;;;;;;;8.03;4.97;;;10.00;99.90;;;;;;957355;148;27375;-78
2022/11/26 09:37:02;;;;;;;6.03;4.93;;;10.00;99.90;;;;;;956240;148;27861;-78
2022/11/26 09:39:29;;;;;;;8.50;4.73;;;10.00;99.90;;;;;;956074;148;27381;-79
2022/11/26 09:42:07;;;;;;;9.80;5.20;;;10.00;99.90;;;;;;954702;148;27292;-78
2022/11/26 09:44:55;;;;;;;10.27;4.40;;;10.00;99.90;;;;;;955074;148;27338;-79
2022/11/26 09:47:27;;;;;;;9.17;4.77;;;10.10;99.90;;;;;;955195;148;27308;-78
2022/11/26 09:50:05;;;;;;;9.70;5.03;;;10.10;99.90;;;;;;956977;148;27904;-78
2022/11/26 09:52:50;;;;;;;8.70;4.80;;;10.20;99.90;;;;;;956876;148;27390;-78
2022/11/26 09:55:16;;;;;;;9.27;4.87;;;10.30;99.90;;;;;;956316;148;27339;-78
2022/11/26 09:57:46;;;;;;;6.77;4.23;;;10.40;99.90;;;;;;954968;148;27356;-78
2022/11/26 10:00:15;;;;;;;8.60;5.30;;;10.60;99.90;;;;;;954770;148;27309;-78
2022/11/26 10:02:42;;;;;;;7.70;4.77;;;10.70;99.90;;;;;;953623;148;28194;-78
2022/11/26 10:05:08;;;;;;;6.60;4.77;;;10.90;99.90;;;;;;955500;148;27453;-78
2022/11/26 10:07:56;;;;;;;6.33;4.23;;;11.00;99.90;;;;;;954637;148;27822;-78
2022/11/26 10:10:37;;;;;;;8.27;5.10;;;11.20;99.90;;;;;;953729;148;27403;-78
2022/11/26 10:13:22;;;;;;;7.60;4.60;;;11.30;99.90;;;;;;937409;149;27860;-78
2022/11/26 10:15:51;;;;;;;8.70;4.63;;;11.40;99.90;;;;;;941017;149;27439;-78
2022/11/26 10:18:36;;;;;;;7.63;4.83;;;11.50;99.90;;;;;;945949;149;27824;-77
2022/11/26 10:21:12;;;;;;;7.60;4.90;;;11.60;99.90;;;;;;945123;149;27489;-79
2022/11/26 10:23:45;;;;;;;8.73;4.60;;;11.80;99.90;;;;;;946279;148;27845;-79
2022/11/26 10:26:17;;;;;;;8.43;4.87;;;11.90;99.90;;;;;;946924;149;27303;-79
2022/11/26 10:28:43;;;;;;;6.77;4.60;;;11.90;99.90;;;;;;947200;148;27409;-78
2022/11/26 10:31:16;;;;;;;7.43;4.90;;;12.00;99.90;;;;;;948152;148;27373;-78
2022/11/26 10:33:51;;;;;;;7.73;4.67;;;12.10;99.90;;;;;;946648;148;27358;-78
2022/11/26 10:36:17;;;;;;;7.80;4.53;;;12.20;99.90;;;;;;945659;149;27844;-78
2022/11/26 10:38:44;;;;;;;6.30;4.40;;;12.30;99.90;;;;;;947986;149;27326;-79
2022/11/26 10:41:10;;;;;;;8.63;4.40;;;12.30;99.90;;;;;;946831;149;27351;-79
2022/11/26 10:43:37;;;;;;;8.53;4.40;;;12.40;99.90;;;;;;947219;149;28517;-78
2022/11/26 10:46:04;;;;;;;6.23;4.07;;;12.40;99.90;;;;;;948537;149;27269;-79
2022/11/26 10:48:33;;;;;;;7.73;4.50;;;12.40;99.90;;;;;;947986;149;27396;-78
2022/11/26 10:51:15;;;;;;;5.83;4.13;;;12.30;99.90;;;;;;948180;149;27301;-79
2022/11/26 10:53:51;;;;;;;9.57;4.83;;;12.30;99.90;;;;;;947305;149;27308;-79
2022/11/26 10:56:17;;;;;;;9.07;3.80;;;12.30;99.90;;;;;;947479;149;27428;-79
2022/11/26 10:58:43;;;;;;;8.13;4.17;;;12.30;99.90;;;;;;948817;149;27369;-79
2022/11/26 11:01:12;;;;;;;5.13;3.63;;;12.30;99.90;;;;;;945873;149;27321;-78
2022/11/26 11:03:39;;;;;;;6.53;3.63;;;12.30;99.90;;;;;;948137;149;27403;-78
2022/11/26 11:06:18;;;;;;;9.67;3.97;;;12.40;99.90;;;;;;948195;149;27348;-78
2022/11/26 11:08:47;;;;;;;7.97;3.97;;;12.50;99.90;;;;;;945712;149;27405;-78
2022/11/26 11:11:26;;;;;;;6.03;3.72;;;12.60;99.90;;;;;;946247;149;27930;-79
2022/11/26 11:13:52;;;;;;;7.57;3.47;;;12.70;99.90;;;;;;940436;150;27302;-79
2022/11/26 11:16:25;;;;;;;5.83;3.07;;;12.90;99.90;;;;;;941014;149;27394;-79
2022/11/26 11:18:57;;;;;;;8.63;3.63;;;13.00;99.90;;;;;;939890;150;27373;-79
2022/11/26 11:21:24;;;;;;;8.13;4.20;;;13.10;99.90;;;;;;940920;150;27416;-78
2022/11/26 11:23:51;;;;;;;6.67;3.40;;;13.20;99.90;;;;;;940696;150;27887;-79
2022/11/26 11:26:23;;;;;;;11.55;4.87;;;13.30;99.90;;;;;;941911;150;27419;-79
2022/11/26 11:28:49;;;;;;;7.47;3.97;;;13.40;99.90;;;;;;941457;150;27365;-79
2022/11/26 11:31:19;;;;;;;6.15;3.60;;;13.50;99.90;;;;;;941136;148;27782;-79
2022/11/26 11:33:45;;;;;;;7.47;4.07;;;13.60;99.90;;;;;;940977;150;27412;-79
2022/11/26 11:36:15;;;;;;;7.37;3.20;;;13.70;99.90;;;;;;941198;150;27292;-79
2022/11/26 11:38:56;;;;;;;5.87;3.25;;;13.70;99.90;;;;;;941231;149;27476;-79
2022/11/26 11:41:44;;;;;;;6.58;3.27;;;13.80;99.90;;;;;;939965;150;27908;-79
2022/11/26 11:44:19;;;;;;;6.97;2.77;;;13.90;99.60;;;;;;941001;150;27287;-79
2022/11/26 11:47:04;;;;;;;6.20;2.80;;;13.90;99.30;;;;;;940177;148;27618;-79
2022/11/26 11:49:58;;;;;;;5.00;2.98;;;13.90;98.80;;;;;;940004;150;27301;-80
2022/11/26 11:52:34;;;;;;;7.23;3.07;;;13.90;98.50;;;;;;940599;149;27283;-79
2022/11/26 11:55:12;;;;;;;11.03;3.42;;;13.90;98.60;;;;;;940391;149;27346;-80
2022/11/26 11:57:54;;;;;;;8.70;3.00;;;13.90;98.20;;;;;;939423;150;27439;-79
2022/11/26 12:00:23;;;;;;;5.40;3.00;;;13.90;98.10;;;;;;938881;150;27777;-79
2022/11/26 12:03:08;;;;;;;4.57;3.03;;;13.90;97.80;;;;;;941098;150;27312;-79
2022/11/26 12:05:59;;;;;;;6.72;3.00;;;13.90;97.80;;;;;;939056;150;27398;-79
2022/11/26 12:08:37;;;;;;;6.50;2.50;;;13.90;97.40;;;;;;940914;150;27377;-80
2022/11/26 12:11:31;;;;;;;5.87;3.10;;;13.80;97.20;;;;;;940878;150;27358;-80
2022/11/26 12:14:00;;;;;;;9.73;3.63;;;13.80;96.70;;;;;;939784;149;27406;-80
2022/11/26 12:16:27;;;;;;;5.00;2.93;;;13.80;96.40;;;;;;940667;150;27329;-79
2022/11/26 12:19:02;;;;;;;6.50;2.90;;;13.70;96.10;;;;;;940339;150;27309;-79
2022/11/26 12:21:50;;;;;;;7.83;3.07;;;13.60;96.00;;;;;;940196;150;27444;-80
2022/11/26 12:24:19;;;;;;;5.40;2.67;;;13.60;96.10;;;;;;939086;150;27653;-80
2022/11/26 12:26:46;;;;;;;5.60;3.10;;;13.50;96.00;;;;;;940874;150;27910;-80
2022/11/26 12:29:27;;;;;;;7.03;2.83;;;13.50;96.10;;;;;;939373;150;27292;-80
2022/11/26 12:32:03;;;;;;;6.15;3.52;;;13.40;96.10;;;;;;941947;150;27318;-81
2022/11/26 12:34:36;;;;;;;5.10;3.00;;;13.40;96.10;;;;;;938707;148;28040;-80
2022/11/26 12:37:02;;;;;;;7.70;3.00;;;13.40;96.00;;;;;;935266;150;27355;-80
2022/11/26 12:39:37;;;;;;;4.87;2.87;;;13.30;95.90;;;;;;940772;150;27395;-80
2022/11/26 12:42:04;;;;;;;7.13;3.57;;;13.30;95.90;;;;;;940551;150;27289;-80
2022/11/26 12:44:36;;;;;;;6.37;3.20;;;13.30;95.80;;;;;;939776;150;27350;-80
2022/11/26 12:47:21;;;;;;;10.67;5.67;;;13.30;95.70;;;;;;939414;150;27869;-80
2022/11/26 12:49:59;;;;;;;8.80;4.93;;;13.30;95.80;;;;;;942669;150;27438;-79
2022/11/26 12:52:29;;;;;;;8.97;3.90;;;13.30;96.40;;;;;;940574;150;27403;-80
2022/11/26 12:55:01;;;;;;;5.13;3.07;;;13.30;96.50;;;;;;940941;150;27463;-79
2022/11/26 12:57:31;;;;;;;5.27;3.77;;;13.30;96.60;;;;;;939331;150;27338;-80
2022/11/26 13:00:05;;;;;;;9.00;3.50;;;13.30;96.80;;;;;;929599;150;27382;-79
2022/11/26 13:02:27;;;;;;;5.00;3.30;;;13.40;96.70;;;;;;939951;150;27916;-79